sensor_id;sensor_type;location;lat;lon;timestamp;P1;durP1;ratioP1;P2;durP2;ratioP2
817;SDS011;391;51.052;6.954;2022-11-27T00:00:42;4.37;;;3.03;;
817;SDS011;391;51.052;6.954;2022-11-27T00:02:47;6.70;;;3.77;;
817;SDS011;391;51.052;6.954;2022-11-27T00:04:50;5.80;;;3.60;;
817;SDS011;391;51.052;6.954;2022-11-27T00:06:54;10.70;;;3.70;;
817;SDS011;391;51.052;6.954;2022-11-27T00:08:57;4.53;;;2.60;;
817;SDS011;391;51.052;6.954;2022-11-27T00:11:05;11.70;;;3.50;;
817;SDS011;391;51.052;6.954;2022-11-27T00:13:09;5.30;;;3.13;;
817;SDS011;391;51.052;6.954;2022-11-27T00:15:12;3.60;;;2.70;;
817;SDS011;391;51.052;6.954;2022-11-27T00:17:18;4.50;;;2.60;;
817;SDS011;391;51.052;6.954;2022-11-27T00:19:23;4.20;;;2.40;;
817;SDS011;391;51.052;6.954;2022-11-27T00:21:27;6.63;;;2.77;;
817;SDS011;391;51.052;6.954;2022-11-27T00:23:31;10.13;;;3.77;;
817;SDS011;391;51.052;6.954;2022-11-27T00:25:35;7.18;;;5.10;;
817;SDS011;391;51.052;6.954;2022-11-27T00:27:38;8.10;;;5.10;;
817;SDS011;391;51.052;6.954;2022-11-27T00:29:42;3.90;;;2.77;;
817;SDS011;391;51.052;6.954;2022-11-27T00:31:45;5.50;;;2.50;;
817;SDS011;391;51.052;6.954;2022-11-27T00:33:49;7.43;;;2.17;;
817;SDS011;391;51.052;6.954;2022-11-27T00:35:53;6.33;;;2.37;;
817;SDS011;391;51.052;6.954;2022-11-27T00:37:57;6.80;;;4.53;;
817;SDS011;391;51.052;6.954;2022-11-27T00:40:00;6.23;;;2.40;;
817;SDS011;391;51.052;6.954;2022-11-27T00:42:04;4.23;;;2.57;;
817;SDS011;391;51.052;6.954;2022-11-27T00:44:07;8.15;;;3.67;;
817;SDS011;391;51.052;6.954;2022-11-27T00:46:11;5.03;;;2.60;;
817;SDS011;391;51.052;6.954;2022-11-27T00:48:14;3.10;;;2.53;;
817;SDS011;391;51.052;6.954;2022-11-27T00:50:18;4.10;;;2.97;;
817;SDS011;391;51.052;6.954;2022-11-27T00:52:23;3.40;;;2.27;;
817;SDS011;391;51.052;6.954;2022-11-27T00:54:26;5.37;;;2.70;;
817;SDS011;391;51.052;6.954;2022-11-27T00:56:30;3.87;;;2.80;;
817;SDS011;391;51.052;6.954;2022-11-27T00:58:35;8.50;;;2.97;;
817;SDS011;391;51.052;6.954;2022-11-27T01:00:39;4.10;;;2.63;;
817;SDS011;391;51.052;6.954;2022-11-27T01:02:42;2.70;;;2.20;;
817;SDS011;391;51.052;6.954;2022-11-27T01:04:46;3.53;;;2.20;;
817;SDS011;391;51.052;6.954;2022-11-27T01:06:50;6.93;;;4.50;;
817;SDS011;391;51.052;6.954;2022-11-27T01:08:54;4.43;;;2.40;;
817;SDS011;391;51.052;6.954;2022-11-27T01:10:58;5.33;;;2.50;;
817;SDS011;391;51.052;6.954;2022-11-27T01:13:02;7.50;;;2.77;;
817;SDS011;391;51.052;6.954;2022-11-27T01:15:06;6.83;;;3.33;;
817;SDS011;391;51.052;6.954;2022-11-27T01:17:10;4.40;;;3.10;;
817;SDS011;391;51.052;6.954;2022-11-27T01:19:14;6.63;;;2.77;;
817;SDS011;391;51.052;6.954;2022-11-27T01:21:18;7.90;;;2.90;;
817;SDS011;391;51.052;6.954;2022-11-27T01:23:22;11.53;;;6.13;;
817;SDS011;391;51.052;6.954;2022-11-27T01:25:28;3.33;;;3.03;;
817;SDS011;391;51.052;6.954;2022-11-27T01:27:31;4.13;;;2.63;;
817;SDS011;391;51.052;6.954;2022-11-27T01:29:34;10.80;;;5.17;;
817;SDS011;391;51.052;6.954;2022-11-27T01:31:38;11.73;;;4.97;;
817;SDS011;391;51.052;6.954;2022-11-27T01:33:42;6.63;;;3.83;;
817;SDS011;391;51.052;6.954;2022-11-27T01:35:51;7.73;;;2.37;;
817;SDS011;391;51.052;6.954;2022-11-27T01:37:56;3.67;;;2.83;;
817;SDS011;391;51.052;6.954;2022-11-27T01:39:59;4.73;;;2.27;;
817;SDS011;391;51.052;6.954;2022-11-27T01:42:04;5.80;;;2.07;;
817;SDS011;391;51.052;6.954;2022-11-27T01:46:53;2.93;;;1.97;;
817;SDS011;391;51.052;6.954;2022-11-27T01:49:00;3.50;;;3.20;;
817;SDS011;391;51.052;6.954;2022-11-27T01:51:15;3.63;;;2.77;;
817;SDS011;391;51.052;6.954;2022-11-27T01:53:19;4.03;;;2.50;;
817;SDS011;391;51.052;6.954;2022-11-27T01:55:25;4.10;;;2.40;;
817;SDS011;391;51.052;6.954;2022-11-27T01:57:34;4.03;;;2.90;;
817;SDS011;391;51.052;6.954;2022-11-27T01:59:43;6.03;;;2.60;;
817;SDS011;391;51.052;6.954;2022-11-27T02:01:48;3.77;;;2.30;;
817;SDS011;391;51.052;6.954;2022-11-27T02:03:51;4.03;;;2.17;;
817;SDS011;391;51.052;6.954;2022-11-27T02:05:55;3.83;;;2.40;;
817;SDS011;391;51.052;6.954;2022-11-27T02:08:01;3.30;;;2.50;;
817;SDS011;391;51.052;6.954;2022-11-27T02:10:08;4.07;;;2.90;;
817;SDS011;391;51.052;6.954;2022-11-27T02:12:14;6.00;;;2.40;;
817;SDS011;391;51.052;6.954;2022-11-27T02:14:28;4.93;;;2.67;;
817;SDS011;391;51.052;6.954;2022-11-27T02:16:41;4.97;;;2.90;;
817;SDS011;391;51.052;6.954;2022-11-27T02:18:51;5.70;;;2.97;;
817;SDS011;391;51.052;6.954;2022-11-27T02:21:04;9.20;;;3.13;;
817;SDS011;391;51.052;6.954;2022-11-27T02:23:19;5.37;;;3.17;;
817;SDS011;391;51.052;6.954;2022-11-27T02:25:31;3.80;;;3.33;;
817;SDS011;391;51.052;6.954;2022-11-27T02:27:59;8.40;;;3.70;;
817;SDS011;391;51.052;6.954;2022-11-27T02:30:13;5.17;;;3.60;;
817;SDS011;391;51.052;6.954;2022-11-27T02:32:19;8.93;;;4.27;;
817;SDS011;391;51.052;6.954;2022-11-27T02:34:29;7.83;;;4.40;;
817;SDS011;391;51.052;6.954;2022-11-27T02:36:36;7.67;;;4.77;;
817;SDS011;391;51.052;6.954;2022-11-27T02:38:45;11.67;;;3.90;;
817;SDS011;391;51.052;6.954;2022-11-27T02:40:55;6.87;;;4.10;;
817;SDS011;391;51.052;6.954;2022-11-27T02:43:07;6.30;;;3.50;;
817;SDS011;391;51.052;6.954;2022-11-27T02:45:16;7.97;;;5.20;;
817;SDS011;391;51.052;6.954;2022-11-27T02:47:24;8.53;;;4.37;;
817;SDS011;391;51.052;6.954;2022-11-27T02:49:29;11.93;;;7.23;;
817;SDS011;391;51.052;6.954;2022-11-27T02:51:35;12.20;;;7.47;;
817;SDS011;391;51.052;6.954;2022-11-27T02:53:44;18.27;;;7.50;;
817;SDS011;391;51.052;6.954;2022-11-27T02:55:51;8.90;;;6.43;;
817;SDS011;391;51.052;6.954;2022-11-27T02:57:55;7.80;;;4.60;;
817;SDS011;391;51.052;6.954;2022-11-27T03:00:02;8.87;;;5.33;;
817;SDS011;391;51.052;6.954;2022-11-27T03:02:10;8.13;;;5.00;;
817;SDS011;391;51.052;6.954;2022-11-27T03:04:21;8.30;;;6.17;;
817;SDS011;391;51.052;6.954;2022-11-27T03:06:30;8.87;;;5.60;;
817;SDS011;391;51.052;6.954;2022-11-27T03:08:40;9.53;;;6.00;;
817;SDS011;391;51.052;6.954;2022-11-27T03:10:51;11.80;;;6.37;;
817;SDS011;391;51.052;6.954;2022-11-27T03:12:59;12.03;;;5.73;;
817;SDS011;391;51.052;6.954;2022-11-27T03:15:08;11.47;;;5.80;;
817;SDS011;391;51.052;6.954;2022-11-27T03:17:17;8.83;;;5.53;;
817;SDS011;391;51.052;6.954;2022-11-27T03:19:37;13.90;;;6.47;;
817;SDS011;391;51.052;6.954;2022-11-27T03:21:49;8.80;;;5.67;;
817;SDS011;391;51.052;6.954;2022-11-27T03:23:55;9.43;;;6.32;;
817;SDS011;391;51.052;6.954;2022-11-27T03:25:59;12.73;;;6.77;;
817;SDS011;391;51.052;6.954;2022-11-27T03:28:04;9.13;;;5.67;;
817;SDS011;391;51.052;6.954;2022-11-27T03:30:11;11.70;;;5.50;;
817;SDS011;391;51.052;6.954;2022-11-27T03:32:15;16.70;;;8.77;;
817;SDS011;391;51.052;6.954;2022-11-27T03:34:20;11.60;;;6.70;;
817;SDS011;391;51.052;6.954;2022-11-27T03:36:23;11.97;;;7.87;;
817;SDS011;391;51.052;6.954;2022-11-27T03:38:27;11.73;;;7.10;;
817;SDS011;391;51.052;6.954;2022-11-27T03:40:32;21.00;;;10.27;;
817;SDS011;391;51.052;6.954;2022-11-27T03:42:50;11.43;;;6.60;;
817;SDS011;391;51.052;6.954;2022-11-27T03:45:01;14.53;;;6.87;;
817;SDS011;391;51.052;6.954;2022-11-27T03:47:11;13.87;;;7.03;;
817;SDS011;391;51.052;6.954;2022-11-27T03:49:28;13.03;;;6.07;;
817;SDS011;391;51.052;6.954;2022-11-27T03:51:43;11.93;;;7.13;;
817;SDS011;391;51.052;6.954;2022-11-27T03:53:54;11.20;;;6.40;;
817;SDS011;391;51.052;6.954;2022-11-27T03:56:06;11.73;;;6.33;;
817;SDS011;391;51.052;6.954;2022-11-27T03:58:18;10.10;;;6.90;;
817;SDS011;391;51.052;6.954;2022-11-27T04:00:29;10.13;;;6.87;;
817;SDS011;391;51.052;6.954;2022-11-27T04:02:43;12.87;;;7.70;;
817;SDS011;391;51.052;6.954;2022-11-27T04:04:48;11.93;;;7.10;;
817;SDS011;391;51.052;6.954;2022-11-27T04:06:52;10.50;;;6.83;;
817;SDS011;391;51.052;6.954;2022-11-27T04:08:55;12.83;;;7.90;;
817;SDS011;391;51.052;6.954;2022-11-27T04:10:59;14.13;;;7.90;;
817;SDS011;391;51.052;6.954;2022-11-27T04:13:02;15.10;;;8.23;;
817;SDS011;391;51.052;6.954;2022-11-27T04:15:08;13.90;;;7.77;;
817;SDS011;391;51.052;6.954;2022-11-27T04:17:17;10.50;;;5.77;;
817;SDS011;391;51.052;6.954;2022-11-27T04:19:23;13.87;;;8.37;;
817;SDS011;391;51.052;6.954;2022-11-27T04:21:26;11.00;;;6.37;;
817;SDS011;391;51.052;6.954;2022-11-27T04:23:30;11.70;;;6.90;;
817;SDS011;391;51.052;6.954;2022-11-27T04:25:33;9.10;;;7.37;;
817;SDS011;391;51.052;6.954;2022-11-27T04:27:36;15.05;;;8.25;;
817;SDS011;391;51.052;6.954;2022-11-27T04:29:40;12.68;;;9.20;;
817;SDS011;391;51.052;6.954;2022-11-27T04:31:44;11.43;;;7.53;;
817;SDS011;391;51.052;6.954;2022-11-27T04:33:47;10.07;;;6.17;;
817;SDS011;391;51.052;6.954;2022-11-27T04:35:52;6.70;;;5.20;;
817;SDS011;391;51.052;6.954;2022-11-27T04:37:55;11.33;;;7.57;;
817;SDS011;391;51.052;6.954;2022-11-27T04:39:59;12.67;;;6.07;;
817;SDS011;391;51.052;6.954;2022-11-27T04:42:03;8.40;;;5.90;;
817;SDS011;391;51.052;6.954;2022-11-27T04:44:06;15.40;;;6.90;;
817;SDS011;391;51.052;6.954;2022-11-27T04:46:10;9.00;;;5.70;;
817;SDS011;391;51.052;6.954;2022-11-27T04:48:13;9.90;;;5.53;;
817;SDS011;391;51.052;6.954;2022-11-27T04:50:16;11.80;;;5.57;;
817;SDS011;391;51.052;6.954;2022-11-27T04:52:21;8.43;;;6.03;;
817;SDS011;391;51.052;6.954;2022-11-27T04:54:25;16.13;;;8.18;;
817;SDS011;391;51.052;6.954;2022-11-27T04:56:28;8.90;;;6.07;;
817;SDS011;391;51.052;6.954;2022-11-27T04:58:31;11.73;;;5.20;;
817;SDS011;391;51.052;6.954;2022-11-27T05:00:35;10.15;;;5.90;;
817;SDS011;391;51.052;6.954;2022-11-27T05:02:38;7.00;;;4.43;;
817;SDS011;391;51.052;6.954;2022-11-27T05:04:42;11.05;;;6.30;;
817;SDS011;391;51.052;6.954;2022-11-27T05:06:45;13.97;;;6.93;;
817;SDS011;391;51.052;6.954;2022-11-27T05:08:50;9.25;;;4.82;;
817;SDS011;391;51.052;6.954;2022-11-27T05:11:00;12.00;;;4.57;;
817;SDS011;391;51.052;6.954;2022-11-27T05:13:05;10.83;;;5.90;;
817;SDS011;391;51.052;6.954;2022-11-27T05:15:08;11.20;;;5.10;;
817;SDS011;391;51.052;6.954;2022-11-27T05:17:11;6.30;;;5.00;;
817;SDS011;391;51.052;6.954;2022-11-27T05:19:15;8.30;;;5.27;;
817;SDS011;391;51.052;6.954;2022-11-27T05:21:20;10.47;;;5.93;;
817;SDS011;391;51.052;6.954;2022-11-27T05:23:23;10.27;;;6.27;;
817;SDS011;391;51.052;6.954;2022-11-27T05:25:28;16.80;;;7.17;;
817;SDS011;391;51.052;6.954;2022-11-27T05:27:32;18.60;;;11.37;;
817;SDS011;391;51.052;6.954;2022-11-27T05:29:35;11.93;;;7.80;;
817;SDS011;391;51.052;6.954;2022-11-27T05:31:40;12.02;;;7.85;;
817;SDS011;391;51.052;6.954;2022-11-27T05:33:44;10.90;;;6.07;;
817;SDS011;391;51.052;6.954;2022-11-27T05:35:47;11.43;;;5.40;;
817;SDS011;391;51.052;6.954;2022-11-27T05:37:51;12.50;;;4.67;;
817;SDS011;391;51.052;6.954;2022-11-27T05:39:54;7.50;;;5.27;;
817;SDS011;391;51.052;6.954;2022-11-27T05:41:59;8.30;;;5.30;;
817;SDS011;391;51.052;6.954;2022-11-27T05:44:02;9.47;;;5.47;;
817;SDS011;391;51.052;6.954;2022-11-27T05:46:07;10.13;;;5.50;;
817;SDS011;391;51.052;6.954;2022-11-27T05:48:12;7.40;;;4.47;;
817;SDS011;391;51.052;6.954;2022-11-27T05:50:15;7.87;;;5.23;;
817;SDS011;391;51.052;6.954;2022-11-27T05:52:19;7.77;;;5.50;;
817;SDS011;391;51.052;6.954;2022-11-27T05:54:22;6.80;;;4.80;;
817;SDS011;391;51.052;6.954;2022-11-27T05:56:26;8.17;;;5.23;;
817;SDS011;391;51.052;6.954;2022-11-27T05:58:30;7.65;;;5.63;;
817;SDS011;391;51.052;6.954;2022-11-27T06:00:34;6.33;;;4.80;;
817;SDS011;391;51.052;6.954;2022-11-27T06:02:37;7.60;;;4.90;;
817;SDS011;391;51.052;6.954;2022-11-27T06:04:40;12.40;;;5.23;;
817;SDS011;391;51.052;6.954;2022-11-27T06:06:44;8.93;;;5.27;;
817;SDS011;391;51.052;6.954;2022-11-27T06:08:47;7.63;;;5.23;;
817;SDS011;391;51.052;6.954;2022-11-27T06:10:50;7.50;;;4.37;;
817;SDS011;391;51.052;6.954;2022-11-27T06:12:54;8.93;;;5.33;;
817;SDS011;391;51.052;6.954;2022-11-27T06:14:59;10.52;;;7.32;;
817;SDS011;391;51.052;6.954;2022-11-27T06:17:02;11.57;;;7.27;;
817;SDS011;391;51.052;6.954;2022-11-27T06:19:06;10.13;;;5.80;;
817;SDS011;391;51.052;6.954;2022-11-27T06:21:11;11.10;;;6.17;;
817;SDS011;391;51.052;6.954;2022-11-27T06:23:15;9.23;;;7.00;;
817;SDS011;391;51.052;6.954;2022-11-27T06:25:19;9.90;;;6.30;;
817;SDS011;391;51.052;6.954;2022-11-27T06:27:22;6.45;;;4.82;;
817;SDS011;391;51.052;6.954;2022-11-27T06:29:25;7.70;;;4.53;;
817;SDS011;391;51.052;6.954;2022-11-27T06:31:31;9.40;;;5.00;;
817;SDS011;391;51.052;6.954;2022-11-27T06:33:35;10.40;;;5.47;;
817;SDS011;391;51.052;6.954;2022-11-27T06:35:38;4.40;;;3.93;;
817;SDS011;391;51.052;6.954;2022-11-27T06:37:41;6.77;;;5.00;;
817;SDS011;391;51.052;6.954;2022-11-27T06:39:46;13.27;;;5.33;;
817;SDS011;391;51.052;6.954;2022-11-27T06:41:50;15.00;;;4.93;;
817;SDS011;391;51.052;6.954;2022-11-27T06:43:53;8.90;;;5.13;;
817;SDS011;391;51.052;6.954;2022-11-27T06:45:57;13.57;;;5.23;;
817;SDS011;391;51.052;6.954;2022-11-27T06:48:03;14.10;;;9.57;;
817;SDS011;391;51.052;6.954;2022-11-27T06:50:07;9.23;;;6.70;;
817;SDS011;391;51.052;6.954;2022-11-27T06:52:11;11.03;;;8.63;;
817;SDS011;391;51.052;6.954;2022-11-27T06:54:14;13.63;;;6.67;;
817;SDS011;391;51.052;6.954;2022-11-27T06:56:19;9.00;;;5.30;;
817;SDS011;391;51.052;6.954;2022-11-27T06:58:23;8.00;;;5.60;;
817;SDS011;391;51.052;6.954;2022-11-27T07:00:32;7.10;;;4.63;;
817;SDS011;391;51.052;6.954;2022-11-27T07:02:35;9.60;;;5.40;;
817;SDS011;391;51.052;6.954;2022-11-27T07:04:40;7.27;;;6.13;;
817;SDS011;391;51.052;6.954;2022-11-27T07:06:43;8.07;;;5.30;;
817;SDS011;391;51.052;6.954;2022-11-27T07:08:47;8.60;;;4.63;;
817;SDS011;391;51.052;6.954;2022-11-27T07:10:50;12.17;;;6.57;;
817;SDS011;391;51.052;6.954;2022-11-27T07:12:54;7.73;;;6.90;;
817;SDS011;391;51.052;6.954;2022-11-27T07:14:57;6.97;;;5.00;;
817;SDS011;391;51.052;6.954;2022-11-27T07:17:05;8.60;;;5.57;;
817;SDS011;391;51.052;6.954;2022-11-27T07:19:09;14.40;;;8.40;;
817;SDS011;391;51.052;6.954;2022-11-27T07:21:14;7.13;;;5.00;;
817;SDS011;391;51.052;6.954;2022-11-27T07:23:17;6.53;;;5.33;;
817;SDS011;391;51.052;6.954;2022-11-27T07:25:20;13.80;;;4.83;;
817;SDS011;391;51.052;6.954;2022-11-27T07:27:24;7.97;;;5.00;;
817;SDS011;391;51.052;6.954;2022-11-27T07:29:28;6.37;;;4.23;;
817;SDS011;391;51.052;6.954;2022-11-27T07:31:31;8.40;;;5.90;;
817;SDS011;391;51.052;6.954;2022-11-27T07:33:35;6.40;;;4.73;;
817;SDS011;391;51.052;6.954;2022-11-27T07:35:38;9.30;;;4.60;;
817;SDS011;391;51.052;6.954;2022-11-27T07:37:43;15.87;;;9.40;;
817;SDS011;391;51.052;6.954;2022-11-27T07:39:46;11.33;;;7.43;;
817;SDS011;391;51.052;6.954;2022-11-27T07:42:04;13.00;;;10.13;;
817;SDS011;391;51.052;6.954;2022-11-27T07:44:29;10.43;;;6.00;;
817;SDS011;391;51.052;6.954;2022-11-27T07:46:32;6.97;;;5.90;;
817;SDS011;391;51.052;6.954;2022-11-27T07:48:35;12.57;;;5.90;;
817;SDS011;391;51.052;6.954;2022-11-27T07:50:39;8.70;;;5.57;;
817;SDS011;391;51.052;6.954;2022-11-27T07:52:44;9.53;;;5.60;;
817;SDS011;391;51.052;6.954;2022-11-27T07:54:47;9.67;;;4.83;;
817;SDS011;391;51.052;6.954;2022-11-27T07:56:50;7.17;;;4.93;;
817;SDS011;391;51.052;6.954;2022-11-27T07:58:55;7.73;;;3.90;;
817;SDS011;391;51.052;6.954;2022-11-27T08:00:58;9.00;;;5.20;;
817;SDS011;391;51.052;6.954;2022-11-27T08:03:02;8.63;;;5.10;;
817;SDS011;391;51.052;6.954;2022-11-27T08:05:06;9.50;;;5.60;;
817;SDS011;391;51.052;6.954;2022-11-27T08:07:14;9.30;;;6.20;;
817;SDS011;391;51.052;6.954;2022-11-27T08:09:19;7.77;;;4.73;;
817;SDS011;391;51.052;6.954;2022-11-27T08:11:23;12.37;;;6.73;;
817;SDS011;391;51.052;6.954;2022-11-27T08:13:30;6.50;;;4.30;;
817;SDS011;391;51.052;6.954;2022-11-27T08:15:33;5.70;;;4.93;;
817;SDS011;391;51.052;6.954;2022-11-27T08:17:38;7.50;;;4.50;;
817;SDS011;391;51.052;6.954;2022-11-27T08:19:41;6.27;;;4.27;;
817;SDS011;391;51.052;6.954;2022-11-27T08:21:45;7.60;;;4.70;;
817;SDS011;391;51.052;6.954;2022-11-27T08:23:48;12.27;;;6.90;;
817;SDS011;391;51.052;6.954;2022-11-27T08:25:53;11.70;;;9.07;;
817;SDS011;391;51.052;6.954;2022-11-27T08:27:57;12.50;;;8.73;;
817;SDS011;391;51.052;6.954;2022-11-27T08:30:00;6.90;;;6.00;;
817;SDS011;391;51.052;6.954;2022-11-27T08:32:04;9.83;;;4.50;;
817;SDS011;391;51.052;6.954;2022-11-27T08:34:08;5.50;;;4.10;;
817;SDS011;391;51.052;6.954;2022-11-27T08:36:11;7.57;;;4.23;;
817;SDS011;391;51.052;6.954;2022-11-27T08:38:19;7.33;;;4.33;;
817;SDS011;391;51.052;6.954;2022-11-27T08:40:23;5.83;;;4.73;;
817;SDS011;391;51.052;6.954;2022-11-27T08:42:28;8.70;;;5.13;;
817;SDS011;391;51.052;6.954;2022-11-27T08:44:31;10.13;;;6.70;;
817;SDS011;391;51.052;6.954;2022-11-27T08:46:35;15.30;;;10.73;;
817;SDS011;391;51.052;6.954;2022-11-27T08:48:38;12.20;;;7.80;;
817;SDS011;391;51.052;6.954;2022-11-27T08:50:42;9.20;;;5.63;;
817;SDS011;391;51.052;6.954;2022-11-27T08:52:46;6.27;;;4.70;;
817;SDS011;391;51.052;6.954;2022-11-27T08:54:49;7.77;;;4.43;;
817;SDS011;391;51.052;6.954;2022-11-27T08:56:58;5.03;;;4.33;;
817;SDS011;391;51.052;6.954;2022-11-27T08:59:03;9.40;;;4.93;;
817;SDS011;391;51.052;6.954;2022-11-27T09:01:07;5.03;;;4.53;;
817;SDS011;391;51.052;6.954;2022-11-27T09:03:12;11.60;;;4.93;;
817;SDS011;391;51.052;6.954;2022-11-27T09:05:15;13.10;;;8.70;;
817;SDS011;391;51.052;6.954;2022-11-27T09:07:19;12.47;;;4.53;;
817;SDS011;391;51.052;6.954;2022-11-27T09:09:22;5.90;;;4.30;;
817;SDS011;391;51.052;6.954;2022-11-27T09:11:26;7.40;;;4.63;;
817;SDS011;391;51.052;6.954;2022-11-27T09:13:32;7.77;;;5.70;;
817;SDS011;391;51.052;6.954;2022-11-27T09:15:39;10.27;;;6.77;;
817;SDS011;391;51.052;6.954;2022-11-27T09:17:42;6.90;;;4.10;;
817;SDS011;391;51.052;6.954;2022-11-27T09:19:45;6.47;;;5.80;;
817;SDS011;391;51.052;6.954;2022-11-27T09:21:49;5.50;;;4.03;;
817;SDS011;391;51.052;6.954;2022-11-27T09:23:53;5.30;;;3.80;;
817;SDS011;391;51.052;6.954;2022-11-27T09:25:57;5.00;;;4.30;;
817;SDS011;391;51.052;6.954;2022-11-27T09:28:01;9.00;;;4.77;;
817;SDS011;391;51.052;6.954;2022-11-27T09:30:05;6.63;;;4.30;;
817;SDS011;391;51.052;6.954;2022-11-27T09:32:10;10.73;;;4.43;;
817;SDS011;391;51.052;6.954;2022-11-27T09:34:14;8.03;;;4.87;;
817;SDS011;391;51.052;6.954;2022-11-27T09:36:19;5.97;;;4.67;;
817;SDS011;391;51.052;6.954;2022-11-27T09:38:24;5.87;;;4.20;;
817;SDS011;391;51.052;6.954;2022-11-27T09:40:27;7.17;;;4.27;;
817;SDS011;391;51.052;6.954;2022-11-27T09:42:34;5.10;;;4.13;;
817;SDS011;391;51.052;6.954;2022-11-27T09:44:42;5.90;;;4.50;;
817;SDS011;391;51.052;6.954;2022-11-27T09:46:49;7.23;;;4.60;;
817;SDS011;391;51.052;6.954;2022-11-27T09:48:55;6.77;;;4.30;;
817;SDS011;391;51.052;6.954;2022-11-27T09:51:02;7.70;;;5.43;;
817;SDS011;391;51.052;6.954;2022-11-27T09:53:12;7.43;;;5.40;;
817;SDS011;391;51.052;6.954;2022-11-27T09:55:25;6.13;;;4.90;;
817;SDS011;391;51.052;6.954;2022-11-27T09:57:37;17.13;;;12.30;;
817;SDS011;391;51.052;6.954;2022-11-27T09:59:45;10.23;;;6.43;;
817;SDS011;391;51.052;6.954;2022-11-27T10:01:52;10.77;;;5.37;;
817;SDS011;391;51.052;6.954;2022-11-27T10:03:57;6.50;;;4.93;;
817;SDS011;391;51.052;6.954;2022-11-27T10:06:05;7.10;;;5.07;;
817;SDS011;391;51.052;6.954;2022-11-27T10:08:24;6.13;;;5.27;;
817;SDS011;391;51.052;6.954;2022-11-27T10:10:34;8.07;;;5.17;;
817;SDS011;391;51.052;6.954;2022-11-27T10:12:43;5.93;;;5.20;;
817;SDS011;391;51.052;6.954;2022-11-27T10:15:01;8.23;;;5.53;;
817;SDS011;391;51.052;6.954;2022-11-27T10:17:10;6.47;;;4.57;;
817;SDS011;391;51.052;6.954;2022-11-27T10:19:29;7.27;;;5.67;;
817;SDS011;391;51.052;6.954;2022-11-27T10:21:37;8.70;;;4.87;;
817;SDS011;391;51.052;6.954;2022-11-27T10:23:48;6.20;;;4.73;;
817;SDS011;391;51.052;6.954;2022-11-27T10:26:00;13.07;;;5.67;;
817;SDS011;391;51.052;6.954;2022-11-27T10:28:11;8.30;;;4.83;;
817;SDS011;391;51.052;6.954;2022-11-27T10:30:21;5.77;;;4.30;;
817;SDS011;391;51.052;6.954;2022-11-27T10:32:26;7.70;;;5.60;;
817;SDS011;391;51.052;6.954;2022-11-27T10:34:54;8.10;;;4.50;;
817;SDS011;391;51.052;6.954;2022-11-27T10:37:01;5.80;;;5.20;;
817;SDS011;391;51.052;6.954;2022-11-27T10:39:11;5.60;;;3.50;;
817;SDS011;391;51.052;6.954;2022-11-27T10:41:19;8.23;;;4.93;;
817;SDS011;391;51.052;6.954;2022-11-27T10:43:46;5.87;;;4.70;;
817;SDS011;391;51.052;6.954;2022-11-27T10:45:55;8.40;;;5.70;;
817;SDS011;391;51.052;6.954;2022-11-27T10:48:02;4.77;;;4.37;;
817;SDS011;391;51.052;6.954;2022-11-27T10:50:11;7.83;;;5.63;;
817;SDS011;391;51.052;6.954;2022-11-27T10:52:16;7.07;;;4.70;;
817;SDS011;391;51.052;6.954;2022-11-27T10:54:22;8.50;;;4.70;;
817;SDS011;391;51.052;6.954;2022-11-27T10:56:35;7.70;;;4.23;;
817;SDS011;391;51.052;6.954;2022-11-27T10:58:49;5.93;;;4.43;;
817;SDS011;391;51.052;6.954;2022-11-27T11:01:00;11.93;;;5.50;;
817;SDS011;391;51.052;6.954;2022-11-27T11:03:04;6.07;;;4.77;;
817;SDS011;391;51.052;6.954;2022-11-27T11:05:10;5.63;;;5.00;;
817;SDS011;391;51.052;6.954;2022-11-27T11:07:51;7.63;;;4.40;;
817;SDS011;391;51.052;6.954;2022-11-27T11:10:00;6.07;;;4.00;;
817;SDS011;391;51.052;6.954;2022-11-27T11:12:07;6.10;;;4.90;;
817;SDS011;391;51.052;6.954;2022-11-27T11:14:15;5.03;;;3.70;;
817;SDS011;391;51.052;6.954;2022-11-27T11:16:21;5.47;;;4.33;;
817;SDS011;391;51.052;6.954;2022-11-27T11:18:30;5.57;;;4.50;;
817;SDS011;391;51.052;6.954;2022-11-27T11:20:36;9.90;;;4.40;;
817;SDS011;391;51.052;6.954;2022-11-27T11:22:43;5.33;;;4.50;;
817;SDS011;391;51.052;6.954;2022-11-27T11:24:48;7.43;;;3.87;;
817;SDS011;391;51.052;6.954;2022-11-27T11:26:54;5.57;;;4.00;;
817;SDS011;391;51.052;6.954;2022-11-27T11:29:01;5.30;;;4.30;;
817;SDS011;391;51.052;6.954;2022-11-27T11:31:07;4.67;;;4.17;;
817;SDS011;391;51.052;6.954;2022-11-27T11:33:15;3.73;;;3.33;;
817;SDS011;391;51.052;6.954;2022-11-27T11:35:25;4.83;;;4.33;;
817;SDS011;391;51.052;6.954;2022-11-27T11:37:34;4.60;;;3.70;;
817;SDS011;391;51.052;6.954;2022-11-27T11:39:41;4.43;;;3.80;;
817;SDS011;391;51.052;6.954;2022-11-27T11:41:48;5.67;;;3.87;;
817;SDS011;391;51.052;6.954;2022-11-27T11:43:52;8.33;;;4.00;;
817;SDS011;391;51.052;6.954;2022-11-27T11:46:12;4.17;;;3.30;;
817;SDS011;391;51.052;6.954;2022-11-27T11:48:21;5.50;;;3.80;;
817;SDS011;391;51.052;6.954;2022-11-27T11:50:26;4.20;;;3.40;;
817;SDS011;391;51.052;6.954;2022-11-27T11:52:42;3.37;;;3.07;;
817;SDS011;391;51.052;6.954;2022-11-27T11:54:57;4.50;;;3.27;;
817;SDS011;391;51.052;6.954;2022-11-27T11:57:19;6.13;;;3.63;;
817;SDS011;391;51.052;6.954;2022-11-27T11:59:44;3.80;;;3.10;;
817;SDS011;391;51.052;6.954;2022-11-27T12:01:58;6.40;;;4.40;;
817;SDS011;391;51.052;6.954;2022-11-27T12:04:22;5.60;;;3.33;;
817;SDS011;391;51.052;6.954;2022-11-27T12:06:44;6.00;;;3.73;;
817;SDS011;391;51.052;6.954;2022-11-27T12:09:05;6.80;;;3.07;;
817;SDS011;391;51.052;6.954;2022-11-27T12:11:26;5.30;;;3.10;;
817;SDS011;391;51.052;6.954;2022-11-27T12:13:39;5.37;;;4.17;;
817;SDS011;391;51.052;6.954;2022-11-27T12:15:53;5.30;;;3.50;;
817;SDS011;391;51.052;6.954;2022-11-27T12:18:06;4.80;;;3.10;;
817;SDS011;391;51.052;6.954;2022-11-27T12:20:17;4.00;;;3.57;;
817;SDS011;391;51.052;6.954;2022-11-27T12:22:27;5.80;;;3.80;;
817;SDS011;391;51.052;6.954;2022-11-27T12:24:50;3.93;;;3.40;;
817;SDS011;391;51.052;6.954;2022-11-27T12:27:04;3.77;;;3.47;;
817;SDS011;391;51.052;6.954;2022-11-27T12:29:30;6.43;;;4.40;;
817;SDS011;391;51.052;6.954;2022-11-27T12:31:52;4.10;;;3.27;;
817;SDS011;391;51.052;6.954;2022-11-27T12:34:12;7.37;;;4.23;;
817;SDS011;391;51.052;6.954;2022-11-27T12:36:27;6.13;;;4.17;;
817;SDS011;391;51.052;6.954;2022-11-27T12:38:59;5.30;;;4.37;;
817;SDS011;391;51.052;6.954;2022-11-27T12:41:18;6.50;;;3.80;;
817;SDS011;391;51.052;6.954;2022-11-27T12:43:34;10.30;;;4.33;;
817;SDS011;391;51.052;6.954;2022-11-27T12:45:42;5.83;;;3.53;;
817;SDS011;391;51.052;6.954;2022-11-27T12:47:51;4.37;;;3.97;;
817;SDS011;391;51.052;6.954;2022-11-27T12:49:58;4.00;;;3.40;;
817;SDS011;391;51.052;6.954;2022-11-27T12:52:07;4.90;;;4.50;;
817;SDS011;391;51.052;6.954;2022-11-27T12:54:16;3.70;;;3.40;;
817;SDS011;391;51.052;6.954;2022-11-27T12:56:27;6.00;;;3.67;;
817;SDS011;391;51.052;6.954;2022-11-27T12:58:36;13.70;;;3.63;;
817;SDS011;391;51.052;6.954;2022-11-27T13:00:42;4.40;;;3.67;;
817;SDS011;391;51.052;6.954;2022-11-27T13:02:49;3.50;;;2.97;;
817;SDS011;391;51.052;6.954;2022-11-27T13:05:03;4.43;;;3.67;;
817;SDS011;391;51.052;6.954;2022-11-27T13:07:10;4.97;;;3.50;;
817;SDS011;391;51.052;6.954;2022-11-27T13:09:18;3.40;;;2.90;;
817;SDS011;391;51.052;6.954;2022-11-27T13:11:31;4.70;;;3.50;;
817;SDS011;391;51.052;6.954;2022-11-27T13:13:39;4.00;;;3.40;;
817;SDS011;391;51.052;6.954;2022-11-27T13:15:47;4.87;;;3.00;;
817;SDS011;391;51.052;6.954;2022-11-27T13:17:56;4.10;;;2.90;;
817;SDS011;391;51.052;6.954;2022-11-27T13:20:05;5.37;;;2.80;;
817;SDS011;391;51.052;6.954;2022-11-27T13:22:17;5.50;;;3.60;;
817;SDS011;391;51.052;6.954;2022-11-27T13:24:32;6.67;;;4.60;;
817;SDS011;391;51.052;6.954;2022-11-27T13:26:39;5.87;;;2.90;;
817;SDS011;391;51.052;6.954;2022-11-27T13:28:48;4.60;;;3.20;;
817;SDS011;391;51.052;6.954;2022-11-27T13:30:56;5.20;;;3.27;;
817;SDS011;391;51.052;6.954;2022-11-27T13:33:02;3.20;;;2.90;;